Weather at Copernicus Wrocław Airport

Public forecast

Using degrees Celsius for public forecast. Weather courtesy of forecast.io.

Current aviation weather report (METAR) for Copernicus Wrocław Airport

Report is more than 6 hours old.

2022/11/14 15:30 (retrieved 2 years ago)

EPWR 141530Z 13007KT CAVOK 08/06 Q1020

Aviation forecast (TAF) for Copernicus Wrocław Airport

Forecast is more than 12 hours old.

2023/02/22 18:37 (retrieved 1 year ago)

TAF EPWR 221730Z 2218/2318 11007KT 9999 BKN040 BECMG 2314/2317 19010KT